sensor_id;sensor_type;location;lat;lon;timestamp;temperature;humidity
15413;DHT22;7805;49.554;7.632;2022-07-23T00:01:27;22.80;99.90
15413;DHT22;7805;49.554;7.632;2022-07-23T00:03:54;22.80;99.90
15413;DHT22;7805;49.554;7.632;2022-07-23T00:06:21;23.40;99.90
15413;DHT22;7805;49.554;7.632;2022-07-23T00:08:46;22.70;99.90
15413;DHT22;7805;49.554;7.632;2022-07-23T00:11:12;22.70;99.90
15413;DHT22;7805;49.554;7.632;2022-07-23T00:13:38;22.70;99.90
15413;DHT22;7805;49.554;7.632;2022-07-23T00:16:04;22.60;99.90
15413;DHT22;7805;49.554;7.632;2022-07-23T00:18:29;22.50;99.90
15413;DHT22;7805;49.554;7.632;2022-07-23T00:20:55;22.60;99.90
15413;DHT22;7805;49.554;7.632;2022-07-23T00:23:21;22.60;99.90
15413;DHT22;7805;49.554;7.632;2022-07-23T00:25:46;22.80;99.90
15413;DHT22;7805;49.554;7.632;2022-07-23T00:28:12;22.50;99.90
15413;DHT22;7805;49.554;7.632;2022-07-23T00:30:38;22.50;99.90
15413;DHT22;7805;49.554;7.632;2022-07-23T00:33:06;22.50;99.90
15413;DHT22;7805;49.554;7.632;2022-07-23T00:35:34;22.40;99.90
15413;DHT22;7805;49.554;7.632;2022-07-23T00:38:02;22.40;99.90
15413;DHT22;7805;49.554;7.632;2022-07-23T00:40:28;22.40;99.90
15413;DHT22;7805;49.554;7.632;2022-07-23T00:42:54;22.20;99.90
15413;DHT22;7805;49.554;7.632;2022-07-23T00:45:20;22.10;99.90
15413;DHT22;7805;49.554;7.632;2022-07-23T00:47:46;22.10;99.90
15413;DHT22;7805;49.554;7.632;2022-07-23T00:50:12;22.20;99.90
15413;DHT22;7805;49.554;7.632;2022-07-23T00:52:39;22.10;99.90
15413;DHT22;7805;49.554;7.632;2022-07-23T00:55:06;21.90;99.90
15413;DHT22;7805;49.554;7.632;2022-07-23T00:57:32;21.80;99.90
15413;DHT22;7805;49.554;7.632;2022-07-23T00:59:58;21.90;99.90
15413;DHT22;7805;49.554;7.632;2022-07-23T01:02:25;22.00;99.90
15413;DHT22;7805;49.554;7.632;2022-07-23T01:04:54;22.00;99.90
15413;DHT22;7805;49.554;7.632;2022-07-23T01:07:20;22.00;99.90
15413;DHT22;7805;49.554;7.632;2022-07-23T01:09:45;21.90;99.90
15413;DHT22;7805;49.554;7.632;2022-07-23T01:12:11;21.70;99.90
15413;DHT22;7805;49.554;7.632;2022-07-23T01:14:37;21.60;99.90
15413;DHT22;7805;49.554;7.632;2022-07-23T01:17:03;21.70;99.90
15413;DHT22;7805;49.554;7.632;2022-07-23T01:19:29;21.50;99.90
15413;DHT22;7805;49.554;7.632;2022-07-23T01:21:57;21.50;99.90
15413;DHT22;7805;49.554;7.632;2022-07-23T01:24:23;21.50;99.90
15413;DHT22;7805;49.554;7.632;2022-07-23T01:26:49;21.40;99.90
15413;DHT22;7805;49.554;7.632;2022-07-23T01:29:16;21.40;99.90
15413;DHT22;7805;49.554;7.632;2022-07-23T01:31:42;21.50;99.90
15413;DHT22;7805;49.554;7.632;2022-07-23T01:34:07;21.70;99.90
15413;DHT22;7805;49.554;7.632;2022-07-23T01:36:34;21.70;99.90
15413;DHT22;7805;49.554;7.632;2022-07-23T01:39:00;23.20;99.90
15413;DHT22;7805;49.554;7.632;2022-07-23T01:41:25;21.60;99.90
15413;DHT22;7805;49.554;7.632;2022-07-23T01:43:51;21.60;99.90
15413;DHT22;7805;49.554;7.632;2022-07-23T01:46:17;21.60;99.90
15413;DHT22;7805;49.554;7.632;2022-07-23T01:48:42;21.60;99.90
15413;DHT22;7805;49.554;7.632;2022-07-23T01:51:08;21.70;99.90
15413;DHT22;7805;49.554;7.632;2022-07-23T01:53:34;21.70;99.90
15413;DHT22;7805;49.554;7.632;2022-07-23T01:56:00;21.60;99.90
15413;DHT22;7805;49.554;7.632;2022-07-23T01:58:26;21.70;99.90
15413;DHT22;7805;49.554;7.632;2022-07-23T02:00:53;21.60;99.90
15413;DHT22;7805;49.554;7.632;2022-07-23T02:03:18;21.50;99.90
15413;DHT22;7805;49.554;7.632;2022-07-23T02:05:44;21.60;99.90
15413;DHT22;7805;49.554;7.632;2022-07-23T02:08:10;21.50;99.90
15413;DHT22;7805;49.554;7.632;2022-07-23T02:10:35;21.40;99.90
15413;DHT22;7805;49.554;7.632;2022-07-23T02:13:01;20.20;99.90
15413;DHT22;7805;49.554;7.632;2022-07-23T02:15:27;21.30;99.90
15413;DHT22;7805;49.554;7.632;2022-07-23T02:17:54;21.40;99.90
15413;DHT22;7805;49.554;7.632;2022-07-23T02:20:19;21.40;99.90
15413;DHT22;7805;49.554;7.632;2022-07-23T02:22:45;21.30;99.90
15413;DHT22;7805;49.554;7.632;2022-07-23T02:25:10;21.20;99.90
15413;DHT22;7805;49.554;7.632;2022-07-23T02:27:36;21.30;99.90
15413;DHT22;7805;49.554;7.632;2022-07-23T02:30:03;21.30;99.90
15413;DHT22;7805;49.554;7.632;2022-07-23T02:32:29;21.30;99.90
15413;DHT22;7805;49.554;7.632;2022-07-23T02:34:55;21.30;99.90
15413;DHT22;7805;49.554;7.632;2022-07-23T02:37:20;21.20;99.90
15413;DHT22;7805;49.554;7.632;2022-07-23T02:39:46;21.10;99.90
15413;DHT22;7805;49.554;7.632;2022-07-23T02:42:13;21.00;99.90
15413;DHT22;7805;49.554;7.632;2022-07-23T02:44:39;21.10;99.90
15413;DHT22;7805;49.554;7.632;2022-07-23T02:47:05;21.10;99.90
15413;DHT22;7805;49.554;7.632;2022-07-23T02:49:31;21.10;99.90
15413;DHT22;7805;49.554;7.632;2022-07-23T02:51:56;21.10;99.90
15413;DHT22;7805;49.554;7.632;2022-07-23T02:54:22;21.10;99.90
15413;DHT22;7805;49.554;7.632;2022-07-23T02:56:48;21.20;99.90
15413;DHT22;7805;49.554;7.632;2022-07-23T02:59:13;21.10;99.90
15413;DHT22;7805;49.554;7.632;2022-07-23T03:01:39;21.00;99.90
15413;DHT22;7805;49.554;7.632;2022-07-23T03:04:05;20.90;99.90
15413;DHT22;7805;49.554;7.632;2022-07-23T03:06:30;21.00;99.90
15413;DHT22;7805;49.554;7.632;2022-07-23T03:08:56;21.00;99.90
15413;DHT22;7805;49.554;7.632;2022-07-23T03:11:21;21.10;99.90
15413;DHT22;7805;49.554;7.632;2022-07-23T03:13:47;21.10;99.90
15413;DHT22;7805;49.554;7.632;2022-07-23T03:16:12;21.20;99.90
15413;DHT22;7805;49.554;7.632;2022-07-23T03:18:38;21.20;99.90
15413;DHT22;7805;49.554;7.632;2022-07-23T03:21:04;21.20;99.90
15413;DHT22;7805;49.554;7.632;2022-07-23T03:23:29;21.30;99.90
15413;DHT22;7805;49.554;7.632;2022-07-23T03:25:55;21.20;99.90
15413;DHT22;7805;49.554;7.632;2022-07-23T03:28:21;21.10;99.90
15413;DHT22;7805;49.554;7.632;2022-07-23T03:30:47;21.10;99.90
15413;DHT22;7805;49.554;7.632;2022-07-23T03:33:14;21.10;99.90
15413;DHT22;7805;49.554;7.632;2022-07-23T03:35:40;21.00;99.90
15413;DHT22;7805;49.554;7.632;2022-07-23T03:38:05;20.80;99.90
15413;DHT22;7805;49.554;7.632;2022-07-23T03:40:31;20.90;99.90
15413;DHT22;7805;49.554;7.632;2022-07-23T03:42:56;20.90;99.90
15413;DHT22;7805;49.554;7.632;2022-07-23T03:45:22;20.90;99.90
15413;DHT22;7805;49.554;7.632;2022-07-23T03:47:48;20.90;99.90
15413;DHT22;7805;49.554;7.632;2022-07-23T03:50:13;21.20;99.90
15413;DHT22;7805;49.554;7.632;2022-07-23T03:52:39;20.90;99.90
15413;DHT22;7805;49.554;7.632;2022-07-23T03:55:05;20.90;99.90
15413;DHT22;7805;49.554;7.632;2022-07-23T03:57:31;20.90;99.90
15413;DHT22;7805;49.554;7.632;2022-07-23T03:59:57;20.90;99.90
15413;DHT22;7805;49.554;7.632;2022-07-23T04:02:22;20.90;99.90
15413;DHT22;7805;49.554;7.632;2022-07-23T04:04:48;20.90;99.90
15413;DHT22;7805;49.554;7.632;2022-07-23T04:07:14;20.90;99.90
15413;DHT22;7805;49.554;7.632;2022-07-23T04:09:40;20.90;99.90
15413;DHT22;7805;49.554;7.632;2022-07-23T04:12:06;20.80;99.90
15413;DHT22;7805;49.554;7.632;2022-07-23T04:14:33;20.80;99.90
15413;DHT22;7805;49.554;7.632;2022-07-23T04:16:59;20.80;99.90
15413;DHT22;7805;49.554;7.632;2022-07-23T04:19:24;20.80;99.90
15413;DHT22;7805;49.554;7.632;2022-07-23T04:21:50;20.80;99.90
15413;DHT22;7805;49.554;7.632;2022-07-23T04:24:17;22.30;99.90
15413;DHT22;7805;49.554;7.632;2022-07-23T04:26:43;21.00;99.90
15413;DHT22;7805;49.554;7.632;2022-07-23T04:29:09;20.80;99.90
15413;DHT22;7805;49.554;7.632;2022-07-23T04:31:34;20.80;99.90
15413;DHT22;7805;49.554;7.632;2022-07-23T04:34:00;20.80;99.90
15413;DHT22;7805;49.554;7.632;2022-07-23T04:36:25;20.80;99.90
15413;DHT22;7805;49.554;7.632;2022-07-23T04:38:51;20.80;99.90
15413;DHT22;7805;49.554;7.632;2022-07-23T04:41:17;20.80;99.90
15413;DHT22;7805;49.554;7.632;2022-07-23T04:43:42;20.70;99.90
15413;DHT22;7805;49.554;7.632;2022-07-23T04:46:08;20.70;99.90
15413;DHT22;7805;49.554;7.632;2022-07-23T04:48:35;20.80;99.90
15413;DHT22;7805;49.554;7.632;2022-07-23T04:51:01;20.50;99.90
15413;DHT22;7805;49.554;7.632;2022-07-23T04:53:27;20.40;99.90
15413;DHT22;7805;49.554;7.632;2022-07-23T04:55:52;20.50;99.90
15413;DHT22;7805;49.554;7.632;2022-07-23T04:58:18;20.50;99.90
15413;DHT22;7805;49.554;7.632;2022-07-23T05:00:43;20.60;99.90
15413;DHT22;7805;49.554;7.632;2022-07-23T05:03:09;20.60;99.90
15413;DHT22;7805;49.554;7.632;2022-07-23T05:05:35;20.80;99.90
15413;DHT22;7805;49.554;7.632;2022-07-23T05:08:01;20.40;99.90
15413;DHT22;7805;49.554;7.632;2022-07-23T05:10:26;20.30;99.90
15413;DHT22;7805;49.554;7.632;2022-07-23T05:12:52;20.20;99.90
15413;DHT22;7805;49.554;7.632;2022-07-23T05:15:18;20.20;99.90
15413;DHT22;7805;49.554;7.632;2022-07-23T05:17:43;20.20;99.90
15413;DHT22;7805;49.554;7.632;2022-07-23T05:20:09;20.30;99.90
15413;DHT22;7805;49.554;7.632;2022-07-23T05:22:35;20.80;99.90
15413;DHT22;7805;49.554;7.632;2022-07-23T05:25:01;20.40;99.90
15413;DHT22;7805;49.554;7.632;2022-07-23T05:27:26;20.40;99.90
15413;DHT22;7805;49.554;7.632;2022-07-23T05:29:52;20.60;99.90
15413;DHT22;7805;49.554;7.632;2022-07-23T05:32:17;21.00;99.90
15413;DHT22;7805;49.554;7.632;2022-07-23T05:34:43;20.80;99.90
15413;DHT22;7805;49.554;7.632;2022-07-23T05:37:08;20.80;99.90
15413;DHT22;7805;49.554;7.632;2022-07-23T05:39:34;20.90;99.90
15413;DHT22;7805;49.554;7.632;2022-07-23T05:42:00;20.90;99.90
15413;DHT22;7805;49.554;7.632;2022-07-23T05:44:25;21.00;99.90
15413;DHT22;7805;49.554;7.632;2022-07-23T05:46:52;21.00;99.90
15413;DHT22;7805;49.554;7.632;2022-07-23T05:49:18;21.00;99.90
15413;DHT22;7805;49.554;7.632;2022-07-23T05:51:44;21.00;99.90
15413;DHT22;7805;49.554;7.632;2022-07-23T05:54:10;21.10;99.90
15413;DHT22;7805;49.554;7.632;2022-07-23T05:56:36;21.00;99.90
15413;DHT22;7805;49.554;7.632;2022-07-23T05:59:02;21.20;99.90
15413;DHT22;7805;49.554;7.632;2022-07-23T06:01:27;21.40;99.90
15413;DHT22;7805;49.554;7.632;2022-07-23T06:03:53;21.60;99.90
15413;DHT22;7805;49.554;7.632;2022-07-23T06:06:18;22.00;99.90
15413;DHT22;7805;49.554;7.632;2022-07-23T06:08:44;22.20;99.90
15413;DHT22;7805;49.554;7.632;2022-07-23T06:11:10;22.40;99.90
15413;DHT22;7805;49.554;7.632;2022-07-23T06:13:36;22.40;99.90
15413;DHT22;7805;49.554;7.632;2022-07-23T06:16:02;22.40;99.90
15413;DHT22;7805;49.554;7.632;2022-07-23T06:18:27;22.40;99.90
15413;DHT22;7805;49.554;7.632;2022-07-23T06:20:53;22.40;99.90
15413;DHT22;7805;49.554;7.632;2022-07-23T06:23:18;22.40;99.90
15413;DHT22;7805;49.554;7.632;2022-07-23T06:25:44;22.30;99.90
15413;DHT22;7805;49.554;7.632;2022-07-23T06:28:09;22.30;99.90
15413;DHT22;7805;49.554;7.632;2022-07-23T06:30:35;22.40;99.90
15413;DHT22;7805;49.554;7.632;2022-07-23T06:33:01;22.50;99.90
15413;DHT22;7805;49.554;7.632;2022-07-23T06:35:26;22.60;99.90
15413;DHT22;7805;49.554;7.632;2022-07-23T06:37:52;22.60;99.90
15413;DHT22;7805;49.554;7.632;2022-07-23T06:40:17;22.70;99.90
15413;DHT22;7805;49.554;7.632;2022-07-23T06:42:43;22.80;99.90
15413;DHT22;7805;49.554;7.632;2022-07-23T06:45:09;23.10;99.90
15413;DHT22;7805;49.554;7.632;2022-07-23T06:47:34;23.30;99.90
15413;DHT22;7805;49.554;7.632;2022-07-23T06:50:00;23.40;99.90
15413;DHT22;7805;49.554;7.632;2022-07-23T06:52:27;23.50;99.90
15413;DHT22;7805;49.554;7.632;2022-07-23T06:54:53;23.50;99.90
15413;DHT22;7805;49.554;7.632;2022-07-23T06:57:18;23.60;99.90
15413;DHT22;7805;49.554;7.632;2022-07-23T06:59:44;22.60;99.90
15413;DHT22;7805;49.554;7.632;2022-07-23T07:02:09;24.20;99.90
15413;DHT22;7805;49.554;7.632;2022-07-23T07:04:35;24.40;99.90
15413;DHT22;7805;49.554;7.632;2022-07-23T07:07:01;24.40;99.90
15413;DHT22;7805;49.554;7.632;2022-07-23T07:09:26;24.40;99.90
15413;DHT22;7805;49.554;7.632;2022-07-23T07:11:52;24.60;99.90
15413;DHT22;7805;49.554;7.632;2022-07-23T07:14:18;24.40;99.90
15413;DHT22;7805;49.554;7.632;2022-07-23T07:16:43;24.50;99.90
15413;DHT22;7805;49.554;7.632;2022-07-23T07:19:09;24.90;99.90
15413;DHT22;7805;49.554;7.632;2022-07-23T07:21:35;25.30;99.90
15413;DHT22;7805;49.554;7.632;2022-07-23T07:24:00;25.00;99.90
15413;DHT22;7805;49.554;7.632;2022-07-23T07:26:26;25.20;99.90
15413;DHT22;7805;49.554;7.632;2022-07-23T07:28:52;25.30;99.90
15413;DHT22;7805;49.554;7.632;2022-07-23T07:31:18;25.30;99.90
15413;DHT22;7805;49.554;7.632;2022-07-23T07:33:43;25.50;99.90
15413;DHT22;7805;49.554;7.632;2022-07-23T07:36:09;25.70;99.90
15413;DHT22;7805;49.554;7.632;2022-07-23T07:38:35;25.50;99.90
15413;DHT22;7805;49.554;7.632;2022-07-23T07:41:00;25.50;99.90
15413;DHT22;7805;49.554;7.632;2022-07-23T07:43:26;25.70;99.90
15413;DHT22;7805;49.554;7.632;2022-07-23T07:45:51;25.90;99.90
15413;DHT22;7805;49.554;7.632;2022-07-23T07:48:17;26.00;99.90
15413;DHT22;7805;49.554;7.632;2022-07-23T07:50:42;26.30;99.90
15413;DHT22;7805;49.554;7.632;2022-07-23T07:53:08;26.50;99.90
15413;DHT22;7805;49.554;7.632;2022-07-23T07:55:34;26.00;99.70
15413;DHT22;7805;49.554;7.632;2022-07-23T07:58:00;26.40;99.90
15413;DHT22;7805;49.554;7.632;2022-07-23T08:00:26;26.20;99.90
15413;DHT22;7805;49.554;7.632;2022-07-23T08:02:53;26.40;99.90
15413;DHT22;7805;49.554;7.632;2022-07-23T08:05:21;26.50;99.80
15413;DHT22;7805;49.554;7.632;2022-07-23T08:07:46;26.60;99.60
15413;DHT22;7805;49.554;7.632;2022-07-23T08:10:12;26.20;99.50
15413;DHT22;7805;49.554;7.632;2022-07-23T08:12:43;26.40;99.80
15413;DHT22;7805;49.554;7.632;2022-07-23T08:15:14;26.70;99.40
15413;DHT22;7805;49.554;7.632;2022-07-23T08:17:41;27.20;99.20
15413;DHT22;7805;49.554;7.632;2022-07-23T08:20:08;27.40;98.40
15413;DHT22;7805;49.554;7.632;2022-07-23T08:22:45;27.10;98.70
15413;DHT22;7805;49.554;7.632;2022-07-23T08:25:11;26.90;98.80
15413;DHT22;7805;49.554;7.632;2022-07-23T08:27:36;26.80;98.70
15413;DHT22;7805;49.554;7.632;2022-07-23T08:30:03;26.70;98.90
15413;DHT22;7805;49.554;7.632;2022-07-23T08:32:28;27.00;98.90
15413;DHT22;7805;49.554;7.632;2022-07-23T08:34:54;27.30;98.60
15413;DHT22;7805;49.554;7.632;2022-07-23T08:37:20;27.80;98.30
15413;DHT22;7805;49.554;7.632;2022-07-23T08:39:45;28.20;97.40
15413;DHT22;7805;49.554;7.632;2022-07-23T08:42:13;28.00;96.80
15413;DHT22;7805;49.554;7.632;2022-07-23T08:44:41;28.10;97.10
15413;DHT22;7805;49.554;7.632;2022-07-23T08:47:10;28.10;96.80
15413;DHT22;7805;49.554;7.632;2022-07-23T08:49:36;28.20;96.60
15413;DHT22;7805;49.554;7.632;2022-07-23T08:52:02;28.50;96.50
15413;DHT22;7805;49.554;7.632;2022-07-23T08:54:27;28.80;95.80
15413;DHT22;7805;49.554;7.632;2022-07-23T08:56:53;28.70;95.40
15413;DHT22;7805;49.554;7.632;2022-07-23T08:59:19;28.80;95.50
15413;DHT22;7805;49.554;7.632;2022-07-23T09:01:44;28.50;95.30
15413;DHT22;7805;49.554;7.632;2022-07-23T09:04:10;28.20;95.60
15413;DHT22;7805;49.554;7.632;2022-07-23T09:06:39;28.40;95.80
15413;DHT22;7805;49.554;7.632;2022-07-23T09:09:18;28.40;95.80
15413;DHT22;7805;49.554;7.632;2022-07-23T09:11:49;28.50;95.90
15413;DHT22;7805;49.554;7.632;2022-07-23T09:14:41;28.50;95.30
15413;DHT22;7805;49.554;7.632;2022-07-23T09:17:15;28.70;95.20
15413;DHT22;7805;49.554;7.632;2022-07-23T09:19:41;29.40;95.10
15413;DHT22;7805;49.554;7.632;2022-07-23T09:22:25;29.90;94.60
15413;DHT22;7805;49.554;7.632;2022-07-23T09:25:10;30.20;93.20
15413;DHT22;7805;49.554;7.632;2022-07-23T09:30:21;30.90;92.60
15413;DHT22;7805;49.554;7.632;2022-07-23T09:33:13;30.70;92.00
15413;DHT22;7805;49.554;7.632;2022-07-23T09:35:53;30.60;92.00
15413;DHT22;7805;49.554;7.632;2022-07-23T09:38:22;30.60;92.40
15413;DHT22;7805;49.554;7.632;2022-07-23T09:41:09;30.80;92.00
15413;DHT22;7805;49.554;7.632;2022-07-23T09:43:35;30.60;91.00
15413;DHT22;7805;49.554;7.632;2022-07-23T09:46:25;30.50;91.70
15413;DHT22;7805;49.554;7.632;2022-07-23T09:48:52;30.60;91.40
15413;DHT22;7805;49.554;7.632;2022-07-23T09:51:19;30.60;91.40
15413;DHT22;7805;49.554;7.632;2022-07-23T09:54:02;30.50;91.50
15413;DHT22;7805;49.554;7.632;2022-07-23T09:56:28;30.70;91.30
15413;DHT22;7805;49.554;7.632;2022-07-23T09:58:54;30.70;91.10
15413;DHT22;7805;49.554;7.632;2022-07-23T10:01:32;30.50;90.90
15413;DHT22;7805;49.554;7.632;2022-07-23T10:03:59;30.30;91.30
15413;DHT22;7805;49.554;7.632;2022-07-23T10:06:24;30.30;91.00
15413;DHT22;7805;49.554;7.632;2022-07-23T10:08:51;30.50;90.40
15413;DHT22;7805;49.554;7.632;2022-07-23T10:11:19;30.20;90.00
15413;DHT22;7805;49.554;7.632;2022-07-23T10:13:44;30.20;90.70
15413;DHT22;7805;49.554;7.632;2022-07-23T10:16:13;30.30;90.00
15413;DHT22;7805;49.554;7.632;2022-07-23T10:18:38;30.80;88.80
15413;DHT22;7805;49.554;7.632;2022-07-23T10:21:08;30.90;88.20
15413;DHT22;7805;49.554;7.632;2022-07-23T10:23:58;30.90;88.00
15413;DHT22;7805;49.554;7.632;2022-07-23T10:26:38;31.30;87.00
15413;DHT22;7805;49.554;7.632;2022-07-23T10:32:14;32.10;84.50
15413;DHT22;7805;49.554;7.632;2022-07-23T10:35:01;32.20;82.60
15413;DHT22;7805;49.554;7.632;2022-07-23T10:37:35;32.30;82.00
15413;DHT22;7805;49.554;7.632;2022-07-23T10:42:35;31.90;82.30
15413;DHT22;7805;49.554;7.632;2022-07-23T10:45:31;31.70;82.00
15413;DHT22;7805;49.554;7.632;2022-07-23T10:48:13;31.10;82.40
15413;DHT22;7805;49.554;7.632;2022-07-23T10:50:39;31.10;83.00
15413;DHT22;7805;49.554;7.632;2022-07-23T10:57:57;31.90;80.60
15413;DHT22;7805;49.554;7.632;2022-07-23T11:00:33;31.40;80.10
15413;DHT22;7805;49.554;7.632;2022-07-23T11:03:01;31.20;80.30
15413;DHT22;7805;49.554;7.632;2022-07-23T11:05:44;31.20;81.00
15413;DHT22;7805;49.554;7.632;2022-07-23T11:08:16;31.30;80.60
15413;DHT22;7805;49.554;7.632;2022-07-23T11:16:12;31.70;79.40
15413;DHT22;7805;49.554;7.632;2022-07-23T11:31:58;30.70;78.00
15413;DHT22;7805;49.554;7.632;2022-07-23T11:36:53;30.80;78.20
15413;DHT22;7805;49.554;7.632;2022-07-23T11:39:20;30.90;78.90
15413;DHT22;7805;49.554;7.632;2022-07-23T11:41:46;31.10;78.10
15413;DHT22;7805;49.554;7.632;2022-07-23T11:44:38;31.40;78.30
15413;DHT22;7805;49.554;7.632;2022-07-23T11:47:05;31.80;77.00
15413;DHT22;7805;49.554;7.632;2022-07-23T11:49:31;32.00;76.70
15413;DHT22;7805;49.554;7.632;2022-07-23T11:52:04;31.90;76.20
15413;DHT22;7805;49.554;7.632;2022-07-23T11:54:30;31.90;76.10
15413;DHT22;7805;49.554;7.632;2022-07-23T11:56:57;32.00;77.40
15413;DHT22;7805;49.554;7.632;2022-07-23T11:59:24;31.70;75.50
15413;DHT22;7805;49.554;7.632;2022-07-23T12:02:02;31.40;76.70
15413;DHT22;7805;49.554;7.632;2022-07-23T12:04:44;30.90;77.50
15413;DHT22;7805;49.554;7.632;2022-07-23T12:07:32;31.00;77.60
15413;DHT22;7805;49.554;7.632;2022-07-23T12:12:35;31.30;78.10
15413;DHT22;7805;49.554;7.632;2022-07-23T12:15:01;31.40;75.50
15413;DHT22;7805;49.554;7.632;2022-07-23T12:17:32;31.40;76.70
15413;DHT22;7805;49.554;7.632;2022-07-23T12:19:59;31.50;75.50
15413;DHT22;7805;49.554;7.632;2022-07-23T12:22:26;31.50;76.00
15413;DHT22;7805;49.554;7.632;2022-07-23T12:25:10;31.70;75.80
15413;DHT22;7805;49.554;7.632;2022-07-23T12:27:36;31.60;74.20
15413;DHT22;7805;49.554;7.632;2022-07-23T12:32:49;31.40;75.00
15413;DHT22;7805;49.554;7.632;2022-07-23T12:35:15;31.50;75.90
15413;DHT22;7805;49.554;7.632;2022-07-23T12:37:42;31.60;75.60
15413;DHT22;7805;49.554;7.632;2022-07-23T12:45:26;31.30;75.90
15413;DHT22;7805;49.554;7.632;2022-07-23T12:48:03;30.90;75.00
15413;DHT22;7805;49.554;7.632;2022-07-23T12:53:17;31.40;75.30
15413;DHT22;7805;49.554;7.632;2022-07-23T12:55:44;31.50;73.40
15413;DHT22;7805;49.554;7.632;2022-07-23T12:58:16;31.60;73.80
15413;DHT22;7805;49.554;7.632;2022-07-23T13:00:53;31.50;74.40
15413;DHT22;7805;49.554;7.632;2022-07-23T13:03:37;32.10;72.90
15413;DHT22;7805;49.554;7.632;2022-07-23T13:06:05;32.80;71.90
15413;DHT22;7805;49.554;7.632;2022-07-23T13:08:32;33.10;69.90
15413;DHT22;7805;49.554;7.632;2022-07-23T13:10:58;33.50;70.00
15413;DHT22;7805;49.554;7.632;2022-07-23T13:13:27;33.30;68.50
15413;DHT22;7805;49.554;7.632;2022-07-23T13:15:53;33.50;67.80
15413;DHT22;7805;49.554;7.632;2022-07-23T13:18:20;33.60;67.60
15413;DHT22;7805;49.554;7.632;2022-07-23T13:20:46;33.60;65.50
15413;DHT22;7805;49.554;7.632;2022-07-23T13:23:13;32.60;65.80
15413;DHT22;7805;49.554;7.632;2022-07-23T13:25:39;32.80;68.00
15413;DHT22;7805;49.554;7.632;2022-07-23T13:28:05;33.20;67.20
15413;DHT22;7805;49.554;7.632;2022-07-23T13:30:30;33.70;66.70
15413;DHT22;7805;49.554;7.632;2022-07-23T13:32:56;34.80;64.50
15413;DHT22;7805;49.554;7.632;2022-07-23T13:35:22;33.70;63.90
15413;DHT22;7805;49.554;7.632;2022-07-23T13:37:47;33.70;63.80
15413;DHT22;7805;49.554;7.632;2022-07-23T13:40:13;33.60;63.50
15413;DHT22;7805;49.554;7.632;2022-07-23T13:42:39;33.60;63.70
15413;DHT22;7805;49.554;7.632;2022-07-23T13:45:06;33.90;63.50
15413;DHT22;7805;49.554;7.632;2022-07-23T13:47:32;34.20;62.80
15413;DHT22;7805;49.554;7.632;2022-07-23T13:49:57;34.30;62.50
15413;DHT22;7805;49.554;7.632;2022-07-23T13:52:23;34.00;61.70
15413;DHT22;7805;49.554;7.632;2022-07-23T13:54:49;33.40;62.10
15413;DHT22;7805;49.554;7.632;2022-07-23T13:57:15;33.50;63.30
15413;DHT22;7805;49.554;7.632;2022-07-23T13:59:41;33.80;63.10
15413;DHT22;7805;49.554;7.632;2022-07-23T14:02:07;34.30;61.00
15413;DHT22;7805;49.554;7.632;2022-07-23T14:04:33;34.20;60.60
15413;DHT22;7805;49.554;7.632;2022-07-23T14:06:58;34.70;61.10
15413;DHT22;7805;49.554;7.632;2022-07-23T14:09:25;35.20;59.40
15413;DHT22;7805;49.554;7.632;2022-07-23T14:11:50;35.40;58.60
15413;DHT22;7805;49.554;7.632;2022-07-23T14:14:17;35.60;57.80
15413;DHT22;7805;49.554;7.632;2022-07-23T14:16:43;35.50;57.00
15413;DHT22;7805;49.554;7.632;2022-07-23T14:19:09;34.80;56.70
15413;DHT22;7805;49.554;7.632;2022-07-23T14:21:35;34.20;57.40
15413;DHT22;7805;49.554;7.632;2022-07-23T14:24:01;33.90;58.10
15413;DHT22;7805;49.554;7.632;2022-07-23T14:26:27;33.60;58.20
15413;DHT22;7805;49.554;7.632;2022-07-23T14:28:53;33.60;59.30
15413;DHT22;7805;49.554;7.632;2022-07-23T14:31:18;33.60;59.10
15413;DHT22;7805;49.554;7.632;2022-07-23T14:33:44;33.40;58.20
15413;DHT22;7805;49.554;7.632;2022-07-23T14:36:09;33.40;58.90
15413;DHT22;7805;49.554;7.632;2022-07-23T14:38:35;33.80;58.70
15413;DHT22;7805;49.554;7.632;2022-07-23T14:41:01;34.20;58.50
15413;DHT22;7805;49.554;7.632;2022-07-23T14:43:26;33.70;57.10
15413;DHT22;7805;49.554;7.632;2022-07-23T14:45:52;33.80;58.20
15413;DHT22;7805;49.554;7.632;2022-07-23T14:48:17;33.80;58.50
15413;DHT22;7805;49.554;7.632;2022-07-23T14:50:43;33.80;57.80
15413;DHT22;7805;49.554;7.632;2022-07-23T14:53:09;33.40;58.00
15413;DHT22;7805;49.554;7.632;2022-07-23T14:55:34;32.90;58.40
15413;DHT22;7805;49.554;7.632;2022-07-23T14:58:00;32.80;59.20
15413;DHT22;7805;49.554;7.632;2022-07-23T15:00:26;32.60;59.30
15413;DHT22;7805;49.554;7.632;2022-07-23T15:02:52;32.40;59.50
15413;DHT22;7805;49.554;7.632;2022-07-23T15:05:18;32.10;60.00
15413;DHT22;7805;49.554;7.632;2022-07-23T15:07:44;31.80;60.40
15413;DHT22;7805;49.554;7.632;2022-07-23T15:10:10;31.60;61.30
15413;DHT22;7805;49.554;7.632;2022-07-23T15:12:35;31.50;61.50
15413;DHT22;7805;49.554;7.632;2022-07-23T15:15:01;31.50;61.60
15413;DHT22;7805;49.554;7.632;2022-07-23T15:17:26;31.40;61.40
15413;DHT22;7805;49.554;7.632;2022-07-23T15:19:52;31.40;61.80
15413;DHT22;7805;49.554;7.632;2022-07-23T15:22:18;31.40;62.20
15413;DHT22;7805;49.554;7.632;2022-07-23T15:24:43;31.50;62.20
15413;DHT22;7805;49.554;7.632;2022-07-23T15:27:09;31.80;62.40
15413;DHT22;7805;49.554;7.632;2022-07-23T15:29:35;32.30;61.90
15413;DHT22;7805;49.554;7.632;2022-07-23T15:32:02;32.80;60.90
15413;DHT22;7805;49.554;7.632;2022-07-23T15:34:27;33.20;59.60
15413;DHT22;7805;49.554;7.632;2022-07-23T15:36:53;33.00;58.60
15413;DHT22;7805;49.554;7.632;2022-07-23T15:39:19;33.10;59.00
15413;DHT22;7805;49.554;7.632;2022-07-23T15:41:44;33.10;59.10
15413;DHT22;7805;49.554;7.632;2022-07-23T15:44:10;33.50;58.80
15413;DHT22;7805;49.554;7.632;2022-07-23T15:46:36;33.60;58.00
15413;DHT22;7805;49.554;7.632;2022-07-23T15:49:02;33.40;57.60
15413;DHT22;7805;49.554;7.632;2022-07-23T15:51:27;32.90;57.70
15413;DHT22;7805;49.554;7.632;2022-07-23T15:53:54;33.00;58.30
15413;DHT22;7805;49.554;7.632;2022-07-23T15:56:20;33.00;58.00
15413;DHT22;7805;49.554;7.632;2022-07-23T15:58:45;33.00;57.80
15413;DHT22;7805;49.554;7.632;2022-07-23T16:01:11;33.20;57.70
15413;DHT22;7805;49.554;7.632;2022-07-23T16:03:37;33.40;57.20
15413;DHT22;7805;49.554;7.632;2022-07-23T16:06:04;33.20;57.10
15413;DHT22;7805;49.554;7.632;2022-07-23T16:08:30;32.90;57.20
15413;DHT22;7805;49.554;7.632;2022-07-23T16:10:56;32.80;58.00
15413;DHT22;7805;49.554;7.632;2022-07-23T16:13:24;32.50;57.90
15413;DHT22;7805;49.554;7.632;2022-07-23T16:15:49;32.80;58.50
15413;DHT22;7805;49.554;7.632;2022-07-23T16:18:15;33.10;57.80
15413;DHT22;7805;49.554;7.632;2022-07-23T16:20:42;33.10;57.30
15413;DHT22;7805;49.554;7.632;2022-07-23T16:23:08;32.50;57.40
15413;DHT22;7805;49.554;7.632;2022-07-23T16:25:34;32.30;58.20
15413;DHT22;7805;49.554;7.632;2022-07-23T16:27:59;32.30;58.60
15413;DHT22;7805;49.554;7.632;2022-07-23T16:30:25;32.20;58.60
15413;DHT22;7805;49.554;7.632;2022-07-23T16:32:51;31.90;58.60